Time;durP1;ratioP1;P1;durP2;ratioP2;P2;SDS_P1;SDS_P2;PMS_P1;PMS_P2;Temp;Humidity;BMP_temperature;BMP_pressure;BME280_temperature;BME280_humidity;BME280_pressure;Samples;Min_cycle;Max_cycle;Signal;HPM_P1;HPM_P2
2024/01/28 00:02:15;;;;;;;8.63;4.30;;;;;;;1.53;79.68;100670.81;5046974;28;20048;-80
2024/01/28 00:04:40;;;;;;;13.00;5.28;;;;;;;1.58;80.48;100671.19;5040352;28;20400;-80
2024/01/28 00:07:06;;;;;;;19.58;5.07;;;;;;;1.60;80.58;100678.94;5041199;28;20029;-80
2024/01/28 00:09:31;;;;;;;13.18;5.07;;;;;;;1.62;79.42;100655.97;5062994;28;20033;-81
2024/01/28 00:11:56;;;;;;;14.48;5.60;;;;;;;1.64;79.58;100673.25;5054263;28;20053;-81
2024/01/28 00:14:22;;;;;;;15.48;5.68;;;;;;;1.61;79.46;100672.72;5032528;28;20025;-80
2024/01/28 00:16:48;;;;;;;19.40;6.57;;;;;;;1.58;79.36;100665.94;5052501;28;20179;-80
2024/01/28 00:19:14;;;;;;;14.45;5.60;;;;;;;1.59;79.16;100667.63;5061888;28;20057;-77
2024/01/28 00:21:39;;;;;;;15.68;6.47;;;;;;;1.53;79.50;100663.75;5053219;28;20051;-77
2024/01/28 00:24:06;;;;;;;19.55;5.82;;;;;;;1.57;79.52;100663.47;5059446;28;20029;-78
2024/01/28 00:26:40;;;;;;;15.52;5.55;;;;;;;1.49;79.13;100664.19;5035390;28;20049;-78
2024/01/28 00:29:06;;;;;;;14.60;5.63;;;;;;;1.46;79.45;100657.41;5029343;28;20497;-78
2024/01/28 00:31:32;;;;;;;13.23;5.68;;;;;;;1.51;79.48;100662.22;5054640;28;20039;-79
2024/01/28 00:33:57;;;;;;;15.23;4.78;;;;;;;1.44;79.32;100664.63;5052394;28;20033;-78
2024/01/28 00:36:23;;;;;;;14.68;5.00;;;;;;;1.29;80.31;100663.44;5056998;28;20469;-79
2024/01/28 00:38:49;;;;;;;16.90;5.90;;;;;;;1.22;80.46;100658.91;5041455;28;20044;-80
2024/01/28 00:41:28;;;;;;;10.85;4.22;;;;;;;1.37;79.92;100668.00;5059202;28;20037;-79
2024/01/28 00:43:54;;;;;;;24.75;4.78;;;;;;;1.21;79.93;100650.19;5056706;28;20077;-80
2024/01/28 00:46:20;;;;;;;8.63;4.05;;;;;;;1.24;80.21;100670.94;5059804;28;20477;-78
2024/01/28 00:48:46;;;;;;;18.25;4.97;;;;;;;1.16;81.02;100665.56;5056329;28;20029;-78
2024/01/28 00:51:12;;;;;;;16.05;4.72;;;;;;;1.22;79.98;100672.88;5055233;28;20020;-78
2024/01/28 00:53:38;;;;;;;12.30;4.40;;;;;;;1.11;80.66;100652.03;5062073;28;20036;-78
2024/01/28 00:56:03;;;;;;;16.13;4.55;;;;;;;1.19;80.32;100661.81;5051587;28;20033;-79
2024/01/28 00:58:29;;;;;;;22.60;5.75;;;;;;;1.19;80.67;100660.03;5056743;28;20123;-78
2024/01/28 01:00:55;;;;;;;19.67;6.15;;;;;;;1.20;80.65;100655.59;5061000;28;20030;-79
2024/01/28 01:03:20;;;;;;;16.90;5.07;;;;;;;1.23;81.01;100644.78;5056243;28;20079;-79
2024/01/28 01:05:46;;;;;;;11.60;4.75;;;;;;;1.24;80.86;100652.53;5051366;28;20029;-78
2024/01/28 01:08:12;;;;;;;11.35;4.63;;;;;;;1.19;80.85;100648.69;5054764;28;20495;-79
2024/01/28 01:10:37;;;;;;;13.95;5.38;;;;;;;1.20;80.91;100651.16;5057026;28;20116;-79
2024/01/28 01:13:03;;;;;;;18.67;4.95;;;;;;;1.21;80.63;100646.72;5053018;28;20028;-79
2024/01/28 01:15:32;;;;;;;21.77;6.57;;;;;;;1.19;81.02;100641.63;5052806;28;20423;-78
2024/01/28 01:17:58;;;;;;;15.85;4.78;;;;;;;1.14;81.17;100641.22;5054244;28;20035;-78
2024/01/28 01:20:23;;;;;;;20.42;5.78;;;;;;;1.11;81.26;100649.41;5050185;28;20032;-78
2024/01/28 01:22:48;;;;;;;21.58;4.70;;;;;;;1.17;81.09;100651.47;5046175;28;20115;-79
2024/01/28 01:25:14;;;;;;;11.65;4.38;;;;;;;1.16;81.17;100644.53;5017285;28;20127;-82
2024/01/28 01:27:40;;;;;;;20.15;5.25;;;;;;;1.21;80.55;100637.03;5036456;28;20033;-80
2024/01/28 01:30:07;;;;;;;13.00;4.32;;;;;;;1.22;80.47;100649.19;5056747;28;20385;-80
2024/01/28 01:32:32;;;;;;;18.45;4.90;;;;;;;1.14;80.80;100633.31;5057733;28;20025;-79
2024/01/28 01:34:58;;;;;;;16.13;4.95;;;;;;;1.28;80.61;100634.66;5061036;28;20127;-80
2024/01/28 01:37:23;;;;;;;10.65;5.60;;;;;;;1.30;80.19;100636.19;5058834;28;20051;-81
2024/01/28 01:39:49;;;;;;;20.45;5.68;;;;;;;1.20;80.65;100640.63;5058700;28;20388;-79
2024/01/28 01:42:14;;;;;;;15.30;5.95;;;;;;;1.27;80.39;100620.69;5065466;28;20024;-79
2024/01/28 01:44:39;;;;;;;14.70;5.82;;;;;;;1.34;79.97;100631.44;5062155;28;20159;-81
2024/01/28 01:47:05;;;;;;;16.10;5.15;;;;;;;1.37;79.48;100639.88;5059791;28;20086;-81
2024/01/28 01:49:32;;;;;;;16.33;5.78;;;;;;;1.33;79.36;100630.59;5064594;28;20074;-80
2024/01/28 01:51:57;;;;;;;15.88;4.95;;;;;;;1.22;79.63;100628.16;5054453;28;20072;-80
2024/01/28 01:54:23;;;;;;;14.85;4.78;;;;;;;1.17;79.80;100629.59;5050448;28;20064;-79
2024/01/28 01:56:49;;;;;;;12.95;5.72;;;;;;;1.22;79.94;100627.34;5051613;28;20040;-80
2024/01/28 01:59:15;;;;;;;14.98;5.53;;;;;;;1.19;79.98;100635.53;5045768;28;20544;-82
2024/01/28 02:01:42;;;;;;;11.32;4.95;;;;;;;1.11;79.95;100623.13;5051998;28;20113;-81
2024/01/28 02:04:07;;;;;;;15.38;5.28;;;;;;;1.03;80.04;100622.16;5057161;28;20052;-80
2024/01/28 02:06:33;;;;;;;20.55;5.70;;;;;;;1.02;80.56;100623.97;5053384;28;20481;-81
2024/01/28 02:08:58;;;;;;;12.23;4.43;;;;;;;1.04;80.11;100623.81;5056060;28;20096;-81
2024/01/28 02:11:24;;;;;;;11.15;4.15;;;;;;;0.99;80.41;100623.41;5053375;28;20037;-78
2024/01/28 02:13:50;;;;;;;15.77;6.28;;;;;;;0.98;80.46;100625.25;5049924;28;20032;-80
2024/01/28 02:16:15;;;;;;;9.98;4.65;;;;;;;0.95;80.31;100625.50;5058510;28;20035;-79
2024/01/28 02:18:41;;;;;;;12.13;4.43;;;;;;;0.99;80.47;100623.41;5056388;28;20558;-79
2024/01/28 02:21:06;;;;;;;13.80;5.50;;;;;;;0.96;80.37;100627.16;5047053;28;20476;-79
2024/01/28 02:23:31;;;;;;;21.27;5.13;;;;;;;0.93;80.87;100616.13;5034230;28;20124;-78
2024/01/28 02:25:57;;;;;;;9.48;4.72;;;;;;;1.08;80.42;100614.66;5060022;28;20120;-78
2024/01/28 02:28:22;;;;;;;13.30;5.88;;;;;;;0.96;80.48;100619.28;5049081;28;20075;-78
2024/01/28 02:30:48;;;;;;;15.20;5.63;;;;;;;1.05;80.13;100615.78;5058023;28;20293;-79
2024/01/28 02:33:13;;;;;;;20.58;5.18;;;;;;;1.08;79.77;100598.91;5034700;28;20059;-79
2024/01/28 02:35:38;;;;;;;16.88;4.93;;;;;;;1.08;79.82;100606.78;5064394;28;20114;-77
2024/01/28 02:38:04;;;;;;;25.33;5.57;;;;;;;1.05;79.97;100592.13;5045560;28;20036;-78
2024/01/28 02:40:30;;;;;;;19.63;4.95;;;;;;;0.99;80.31;100599.75;5050116;28;20036;-77
2024/01/28 02:42:56;;;;;;;15.05;5.45;;;;;;;0.91;79.97;100597.88;5051325;28;20036;-77
2024/01/28 02:45:22;;;;;;;15.48;4.28;;;;;;;0.97;80.01;100601.72;5066415;28;20029;-79
2024/01/28 02:47:48;;;;;;;13.73;4.53;;;;;;;1.00;80.08;100601.44;5049071;28;20025;-79
2024/01/28 02:50:13;;;;;;;18.30;6.13;;;;;;;1.02;79.50;100602.09;5048872;28;20037;-79
2024/01/28 02:52:39;;;;;;;9.68;4.88;;;;;;;1.00;79.90;100601.44;5042192;28;20036;-79
2024/01/28 02:55:04;;;;;;;12.10;4.43;;;;;;;0.94;79.78;100597.56;5051529;28;20033;-79
2024/01/28 02:57:30;;;;;;;16.95;5.13;;;;;;;1.02;79.75;100584.53;5053872;28;20033;-79
2024/01/28 02:59:55;;;;;;;15.82;4.93;;;;;;;1.08;78.99;100577.88;5058357;28;20032;-79
2024/01/28 03:02:20;;;;;;;11.20;5.88;;;;;;;1.10;79.53;100584.63;5051886;28;20109;-78
2024/01/28 03:04:46;;;;;;;11.50;4.97;;;;;;;1.07;79.50;100576.22;5034934;28;20417;-78
2024/01/28 03:07:12;;;;;;;17.98;5.95;;;;;;;0.93;79.20;100569.63;5064487;28;20036;-78
2024/01/28 03:09:37;;;;;;;17.55;6.00;;;;;;;1.01;79.75;100568.91;5033805;28;20503;-78
2024/01/28 03:12:02;;;;;;;20.27;6.40;;;;;;;1.08;79.06;100562.09;5058488;28;20036;-78
2024/01/28 03:14:28;;;;;;;25.98;5.57;;;;;;;1.03;79.19;100566.94;5053355;28;20082;-78
2024/01/28 03:16:53;;;;;;;12.52;5.50;;;;;;;1.07;79.10;100563.88;5059310;28;20028;-78
2024/01/28 03:19:18;;;;;;;20.23;5.40;;;;;;;1.05;78.99;100565.03;5055158;28;20043;-78
2024/01/28 03:21:44;;;;;;;20.08;5.25;;;;;;;1.06;78.99;100564.03;5049466;28;20389;-78
2024/01/28 03:24:09;;;;;;;20.05;5.72;;;;;;;1.05;79.11;100565.03;5041073;28;20039;-78
2024/01/28 03:26:35;;;;;;;12.43;5.30;;;;;;;0.91;79.28;100553.19;5054561;28;20063;-78
2024/01/28 03:29:01;;;;;;;20.48;5.70;;;;;;;1.00;78.77;100569.88;5059867;28;20064;-78
2024/01/28 03:31:27;;;;;;;37.53;6.53;;;;;;;0.97;79.26;100564.91;5055537;28;20029;-79
2024/01/28 03:33:52;;;;;;;13.52;5.50;;;;;;;0.90;79.13;100564.66;5042946;28;20096;-79
2024/01/28 03:36:18;;;;;;;11.00;4.95;;;;;;;0.82;79.38;100566.34;5060202;28;20096;-78
2024/01/28 03:38:43;;;;;;;12.15;6.25;;;;;;;0.91;79.20;100563.69;5057864;28;20033;-80
2024/01/28 03:41:08;;;;;;;12.40;5.60;;;;;;;0.87;79.56;100562.34;5056463;28;20036;-79
2024/01/28 03:43:34;;;;;;;19.88;6.68;;;;;;;0.88;79.87;100555.25;5062000;28;20580;-79
2024/01/28 03:45:59;;;;;;;14.85;6.07;;;;;;;0.74;79.82;100559.19;5056145;28;20120;-79
2024/01/28 03:48:25;;;;;;;14.40;5.82;;;;;;;0.83;79.59;100552.25;5052743;28;20029;-79
2024/01/28 03:50:50;;;;;;;14.63;6.72;;;;;;;0.55;80.54;100540.84;5054664;28;20037;-81
2024/01/28 03:53:15;;;;;;;15.10;6.70;;;;;;;0.60;80.22;100552.59;5053479;28;20048;-81
2024/01/28 03:55:43;;;;;;;17.38;6.10;;;;;;;0.76;80.33;100544.13;5059552;28;20061;-80
2024/01/28 03:58:09;;;;;;;13.18;5.22;;;;;;;0.91;79.57;100553.19;5053816;28;20029;-80
2024/01/28 04:00:35;;;;;;;11.13;5.32;;;;;;;0.84;79.14;100559.97;5053708;28;20030;-80
2024/01/28 04:03:01;;;;;;;15.75;5.82;;;;;;;0.92;79.13;100554.81;5056073;28;20040;-79
2024/01/28 04:05:26;;;;;;;19.70;6.30;;;;;;;0.77;79.40;100561.53;5054231;28;20037;-79
2024/01/28 04:07:52;;;;;;;12.45;5.85;;;;;;;0.69;80.26;100561.44;5060335;28;20058;-79
2024/01/28 04:10:18;;;;;;;24.15;5.53;;;;;;;0.78;79.80;100557.94;5057366;28;20086;-79
2024/01/28 04:12:43;;;;;;;15.20;6.05;;;;;;;0.84;80.23;100559.97;5045123;28;20112;-79
2024/01/28 04:15:09;;;;;;;19.25;6.72;;;;;;;0.81;79.20;100560.25;5050759;28;20116;-79
2024/01/28 04:17:35;;;;;;;29.58;6.00;;;;;;;0.70;79.57;100560.44;5060650;28;20478;-79
2024/01/28 04:20:01;;;;;;;17.08;5.45;;;;;;;0.77;79.54;100548.38;5056792;28;20444;-79
2024/01/28 04:22:26;;;;;;;14.23;6.05;;;;;;;0.83;79.19;100547.81;5054970;28;20103;-79
2024/01/28 04:24:52;;;;;;;16.58;5.90;;;;;;;0.84;78.90;100552.09;5055508;28;20050;-78
2024/01/28 04:27:17;;;;;;;16.85;5.88;;;;;;;0.73;79.82;100553.13;5055980;28;20037;-78
2024/01/28 04:29:43;;;;;;;16.65;5.22;;;;;;;0.85;79.23;100551.16;5053039;28;20028;-79
2024/01/28 04:32:10;;;;;;;10.43;5.32;;;;;;;0.76;78.79;100552.00;5052672;28;20089;-79
2024/01/28 04:34:35;;;;;;;21.25;5.63;;;;;;;0.71;79.25;100560.31;5065326;28;20033;-80
2024/01/28 04:37:01;;;;;;;13.80;5.32;;;;;;;0.57;79.66;100547.63;5064365;28;20362;-79
2024/01/28 04:39:26;;;;;;;13.07;5.50;;;;;;;0.57;80.03;100558.13;5048715;28;20083;-80
2024/01/28 04:41:52;;;;;;;15.80;5.38;;;;;;;0.54;80.37;100549.72;5046237;28;20037;-80
2024/01/28 04:44:21;;;;;;;20.90;5.40;;;;;;;0.53;80.79;100554.13;5054271;28;20021;-80
2024/01/28 04:46:48;;;;;;;13.68;6.07;;;;;;;0.46;80.45;100541.72;5061011;28;20456;-79
2024/01/28 04:49:14;;;;;;;22.08;7.18;;;;;;;0.50;80.52;100545.72;5055090;28;20029;-79
2024/01/28 04:51:39;;;;;;;11.80;5.47;;;;;;;0.47;80.35;100540.75;5053382;28;20055;-79
2024/01/28 04:54:05;;;;;;;16.30;7.22;;;;;;;0.45;81.13;100537.44;5055911;28;20519;-80
2024/01/28 04:56:31;;;;;;;14.60;5.68;;;;;;;0.50;80.76;100535.22;5038685;28;20041;-80
2024/01/28 04:58:57;;;;;;;15.15;5.47;;;;;;;0.41;80.61;100536.91;5053176;28;20028;-78
2024/01/28 05:01:23;;;;;;;12.18;5.40;;;;;;;0.53;80.72;100534.91;5047529;28;20031;-80
2024/01/28 05:03:48;;;;;;;18.67;6.03;;;;;;;0.44;80.79;100530.50;5055057;28;20021;-78
2024/01/28 05:06:14;;;;;;;18.30;5.75;;;;;;;0.47;80.99;100540.75;5059464;28;20044;-81
2024/01/28 05:08:40;;;;;;;19.33;5.70;;;;;;;0.37;80.37;100527.63;5043581;28;20481;-78
2024/01/28 05:11:06;;;;;;;24.63;6.68;;;;;;;0.43;80.80;100539.38;5055588;28;20028;-78
2024/01/28 05:13:32;;;;;;;16.95;5.57;;;;;;;0.40;80.60;100534.41;5055187;28;20083;-80
2024/01/28 05:15:57;;;;;;;17.48;5.95;;;;;;;0.39;81.25;100543.25;5057572;28;20439;-80
2024/01/28 05:18:22;;;;;;;19.38;5.45;;;;;;;0.35;81.45;100536.66;5038912;28;20056;-78
2024/01/28 05:20:48;;;;;;;12.57;5.80;;;;;;;0.34;81.38;100529.72;5037137;28;20052;-78
2024/01/28 05:23:14;;;;;;;20.83;6.15;;;;;;;0.37;81.70;100521.56;5057519;28;20090;-78
2024/01/28 05:25:39;;;;;;;13.80;6.03;;;;;;;0.31;81.17;100522.13;5061060;28;20380;-78
2024/01/28 05:28:07;;;;;;;16.17;6.40;;;;;;;0.34;81.23;100524.47;5059389;28;20028;-79
2024/01/28 05:30:33;;;;;;;19.90;6.82;;;;;;;0.39;81.48;100517.00;5051872;28;20063;-79
2024/01/28 05:32:58;;;;;;;18.35;6.38;;;;;;;0.31;81.19;100519.50;5062904;28;20032;-79
2024/01/28 05:35:24;;;;;;;14.68;6.28;;;;;;;0.35;81.05;100515.63;5046494;28;20028;-79
2024/01/28 05:37:49;;;;;;;18.45;6.50;;;;;;;0.37;81.25;100508.44;5049424;28;20048;-79
2024/01/28 05:40:15;;;;;;;13.00;5.38;;;;;;;0.38;81.20;100510.09;5051344;28;20037;-79
2024/01/28 05:42:40;;;;;;;16.98;6.70;;;;;;;0.32;80.93;100503.63;5047423;28;20025;-79
2024/01/28 05:45:06;;;;;;;17.80;6.13;;;;;;;0.41;81.01;100510.66;5040809;28;20036;-79
2024/01/28 05:47:31;;;;;;;23.58;6.57;;;;;;;0.31;81.12;100509.81;5059572;28;20020;-79
2024/01/28 05:49:57;;;;;;;20.20;7.43;;;;;;;0.31;81.42;100514.25;5050101;28;20480;-79
2024/01/28 05:52:22;;;;;;;13.38;6.00;;;;;;;0.27;81.35;100512.88;5055089;28;20029;-79
2024/01/28 05:54:48;;;;;;;11.68;5.47;;;;;;;0.27;81.37;100508.47;5058924;28;20052;-79
2024/01/28 05:57:14;;;;;;;14.80;5.97;;;;;;;0.34;80.93;100512.19;5050027;28;20040;-79
2024/01/28 05:59:40;;;;;;;17.23;5.60;;;;;;;0.50;80.41;100522.88;5058546;28;20028;-79
2024/01/28 06:02:05;;;;;;;16.80;6.57;;;;;;;0.42;80.29;100520.16;5059389;28;20033;-79
2024/01/28 06:04:30;;;;;;;20.60;6.90;;;;;;;0.58;79.88;100522.19;5065081;28;20025;-79
2024/01/28 06:06:56;;;;;;;20.02;6.82;;;;;;;0.39;80.27;100514.38;5040434;28;20029;-79
2024/01/28 06:09:21;;;;;;;15.25;6.45;;;;;;;0.48;79.78;100514.31;5062565;28;20480;-81
2024/01/28 06:11:47;;;;;;;29.38;6.32;;;;;;;0.64;79.41;100527.69;5053848;28;20037;-82
2024/01/28 06:14:12;;;;;;;19.58;5.72;;;;;;;0.63;79.17;100523.41;5047958;28;20040;-81
2024/01/28 06:16:38;;;;;;;17.95;5.63;;;;;;;0.59;78.97;100519.41;5051173;28;20566;-82
2024/01/28 06:19:04;;;;;;;14.68;5.47;;;;;;;0.54;79.08;100512.94;5058269;28;20029;-82
2024/01/28 06:21:29;;;;;;;10.77;6.15;;;;;;;0.49;78.99;100502.03;5055275;28;20037;-82
2024/01/28 06:23:55;;;;;;;13.35;5.68;;;;;;;0.42;79.08;100493.06;5049195;28;20036;-82
2024/01/28 06:26:20;;;;;;;14.88;6.10;;;;;;;0.46;79.21;100502.34;5051815;28;20028;-81
2024/01/28 06:28:46;;;;;;;13.20;5.70;;;;;;;0.43;78.60;100497.34;5018353;28;20040;-80
2024/01/28 06:31:12;;;;;;;21.90;6.35;;;;;;;0.44;79.06;100518.22;5043357;28;20033;-81
2024/01/28 06:33:37;;;;;;;11.48;5.03;;;;;;;0.38;78.92;100510.09;5061322;28;20029;-82
2024/01/28 06:36:03;;;;;;;10.45;5.25;;;;;;;0.37;79.32;100513.69;5038786;28;20029;-78
2024/01/28 06:38:30;;;;;;;24.35;5.93;;;;;;;0.18;79.69;100516.34;5058047;28;20032;-79
2024/01/28 06:40:57;;;;;;;14.15;6.07;;;;;;;0.06;80.07;100494.69;5051975;28;20067;-80
2024/01/28 06:43:25;;;;;;;21.35;5.15;;;;;;;0.24;79.67;100495.59;5053513;28;20044;-79
2024/01/28 06:45:50;;;;;;;14.43;5.80;;;;;;;0.35;79.39;100505.13;5042167;28;20029;-80
2024/01/28 06:48:16;;;;;;;12.45;4.78;;;;;;;0.37;79.17;100508.44;5055833;28;20028;-80
2024/01/28 06:50:42;;;;;;;9.40;5.25;;;;;;;0.36;78.68;100498.91;5061525;28;20472;-79
2024/01/28 06:53:07;;;;;;;17.50;5.32;;;;;;;0.44;78.90;100509.50;5065727;28;20443;-80
2024/01/28 06:55:33;;;;;;;11.75;5.50;;;;;;;0.39;78.24;100514.38;5052438;28;20044;-80
2024/01/28 06:58:00;;;;;;;9.35;5.15;;;;;;;0.27;78.97;100515.50;5054761;28;20041;-80
2024/01/28 07:00:25;;;;;;;18.77;6.47;;;;;;;0.22;78.96;100508.03;5054294;28;20036;-80
2024/01/28 07:02:53;;;;;;;17.20;5.15;;;;;;;0.30;79.05;100520.47;5065357;28;20431;-80
2024/01/28 07:05:19;;;;;;;14.68;5.82;;;;;;;0.26;78.92;100516.47;5050889;28;20108;-79
2024/01/28 07:07:44;;;;;;;12.48;5.88;;;;;;;0.27;78.92;100520.75;5046387;28;20120;-78
2024/01/28 07:10:10;;;;;;;13.85;6.25;;;;;;;0.25;79.00;100523.53;5055834;28;20025;-79
2024/01/28 07:12:36;;;;;;;19.65;5.35;;;;;;;0.21;78.99;100510.81;5046925;28;20099;-79
2024/01/28 07:15:02;;;;;;;12.20;5.43;;;;;;;0.06;79.53;100507.81;5042370;28;20091;-79
2024/01/28 07:17:27;;;;;;;13.13;6.10;;;;;;;0.09;79.69;100510.16;5057862;28;20025;-79
2024/01/28 07:19:52;;;;;;;22.67;6.28;;;;;;;0.05;79.90;100508.78;5047179;28;20057;-78
2024/01/28 07:22:18;;;;;;;14.45;6.13;;;;;;;0.05;80.18;100507.94;5051529;28;20389;-78
2024/01/28 07:24:43;;;;;;;15.25;5.65;;;;;;;0.12;80.22;100501.16;5059245;28;20060;-78
2024/01/28 07:27:09;;;;;;;13.18;6.55;;;;;;;0.08;79.83;100505.88;5052449;28;20037;-79
2024/01/28 07:29:34;;;;;;;11.10;5.60;;;;;;;0.09;80.06;100507.53;5038208;28;20021;-79
2024/01/28 07:32:00;;;;;;;15.93;5.85;;;;;;;0.14;80.33;100513.19;5052962;28;20029;-79
2024/01/28 07:34:25;;;;;;;18.63;5.82;;;;;;;0.17;79.87;100507.66;5050476;28;20044;-79
2024/01/28 07:36:54;;;;;;;20.60;5.78;;;;;;;0.14;80.45;100505.31;5044906;28;20028;-79
2024/01/28 07:39:19;;;;;;;15.02;6.05;;;;;;;0.05;80.35;100510.56;5047738;28;20533;-80
2024/01/28 07:41:44;;;;;;;18.35;5.85;;;;;;;0.05;81.05;100493.03;5041437;28;20112;-78
2024/01/28 07:44:09;;;;;;;10.90;4.57;;;;;;;0.08;81.13;100490.13;5046246;28;20048;-79
2024/01/28 07:46:35;;;;;;;14.55;5.60;;;;;;;0.04;80.96;100487.94;5054405;28;20362;-79
2024/01/28 07:49:00;;;;;;;15.98;6.40;;;;;;;0.07;81.39;100475.34;5054208;28;20397;-79
2024/01/28 07:51:26;;;;;;;10.93;5.40;;;;;;;0.12;81.25;100475.75;5048654;28;20041;-80
2024/01/28 07:53:51;;;;;;;18.25;5.35;;;;;;;0.11;81.19;100463.56;5052525;28;20033;-80
2024/01/28 07:56:17;;;;;;;14.80;5.13;;;;;;;0.22;81.00;100475.75;5047936;28;20033;-79
2024/01/28 07:58:42;;;;;;;16.58;5.40;;;;;;;0.17;81.51;100470.06;5048587;28;20034;-79
2024/01/28 08:01:08;;;;;;;22.75;6.03;;;;;;;0.13;81.53;100473.97;5051864;28;20051;-79
2024/01/28 08:03:33;;;;;;;11.25;5.25;;;;;;;0.17;82.16;100473.53;5051841;28;20043;-78
2024/01/28 08:05:58;;;;;;;15.57;5.72;;;;;;;0.18;81.78;100472.56;5051182;28;20049;-79
2024/01/28 08:08:24;;;;;;;19.08;6.55;;;;;;;0.22;81.29;100470.47;5033888;28;20036;-78
2024/01/28 08:10:49;;;;;;;19.30;6.32;;;;;;;0.28;81.53;100489.13;5048015;28;20063;-79
2024/01/28 08:13:15;;;;;;;13.32;5.60;;;;;;;0.30;81.90;100475.84;5047396;28;20040;-79
2024/01/28 08:15:40;;;;;;;18.88;5.68;;;;;;;0.41;81.48;100478.28;5048784;28;20116;-78
2024/01/28 08:18:06;;;;;;;12.70;5.88;;;;;;;0.37;81.35;100482.19;5050047;28;20118;-78
2024/01/28 08:20:31;;;;;;;11.07;5.15;;;;;;;0.45;81.39;100477.03;5053477;28;20075;-79
2024/01/28 08:22:57;;;;;;;15.10;6.35;;;;;;;0.38;81.74;100478.56;5054140;28;20028;-79
2024/01/28 08:25:23;;;;;;;20.05;6.35;;;;;;;0.42;81.33;100470.25;5033009;28;20029;-78
2024/01/28 08:27:48;;;;;;;22.73;6.13;;;;;;;0.59;81.07;100476.56;5053306;28;20017;-79
2024/01/28 08:30:15;;;;;;;16.02;6.18;;;;;;;0.52;81.16;100481.56;5053585;28;20427;-79
2024/01/28 08:32:40;;;;;;;11.13;5.50;;;;;;;0.41;81.86;100478.28;5052214;28;20041;-79
2024/01/28 08:35:07;;;;;;;8.20;5.13;;;;;;;0.65;81.25;100476.00;5049333;28;20062;-79
2024/01/28 08:37:32;;;;;;;16.90;5.95;;;;;;;0.60;81.46;100463.28;5055217;28;20033;-79
2024/01/28 08:39:58;;;;;;;18.00;5.53;;;;;;;0.71;81.36;100481.50;5061670;28;20029;-79
2024/01/28 08:42:24;;;;;;;12.43;6.53;;;;;;;0.56;81.45;100482.09;5055078;28;20029;-79
2024/01/28 08:44:49;;;;;;;16.45;6.22;;;;;;;0.63;81.51;100477.94;5052031;28;20400;-80
2024/01/28 08:47:15;;;;;;;13.68;5.93;;;;;;;0.70;81.76;100481.63;5054086;28;20025;-79
2024/01/28 08:49:41;;;;;;;31.50;6.65;;;;;;;0.70;81.68;100489.50;5052404;28;20021;-79
2024/01/28 08:52:06;;;;;;;27.63;10.90;;;;;;;0.70;82.37;100486.88;5055479;28;20029;-78
2024/01/28 08:54:32;;;;;;;32.55;10.93;;;;;;;0.74;82.14;100494.31;5042602;28;20044;-78
2024/01/28 08:56:58;;;;;;;33.03;9.98;;;;;;;0.85;82.03;100489.84;5046686;28;20041;-79
2024/01/28 08:59:24;;;;;;;17.45;7.25;;;;;;;0.81;81.70;100497.19;5051150;28;20381;-79
2024/01/28 09:01:51;;;;;;;23.80;7.97;;;;;;;0.55;83.80;100488.31;5050580;28;20029;-78
2024/01/28 09:04:17;;;;;;;18.10;7.30;;;;;;;0.75;82.65;100485.47;5053295;28;20075;-79
2024/01/28 09:06:42;;;;;;;21.10;6.43;;;;;;;0.58;82.79;100482.78;5030301;28;20056;-78
2024/01/28 09:09:08;;;;;;;16.70;5.70;;;;;;;0.46;83.73;100476.88;5052684;28;20428;-79
2024/01/28 09:11:34;;;;;;;22.95;6.47;;;;;;;0.52;83.92;100473.69;5053605;28;20045;-78
2024/01/28 09:14:01;;;;;;;14.88;6.95;;;;;;;0.21;85.62;100476.69;5045926;28;20401;-78
2024/01/28 09:16:26;;;;;;;19.48;7.15;;;;;;;0.56;84.26;100472.44;5051873;28;20516;-78
2024/01/28 09:18:52;;;;;;;12.07;6.38;;;;;;;0.36;85.11;100473.47;5049704;28;20048;-78
2024/01/28 09:21:17;;;;;;;15.68;6.30;;;;;;;0.53;84.30;100471.88;5051486;28;20469;-78
2024/01/28 09:23:42;;;;;;;14.52;6.13;;;;;;;0.45;84.36;100470.00;5045218;28;20064;-78
2024/01/28 09:26:08;;;;;;;16.85;7.07;;;;;;;0.38;85.00;100468.91;5046512;28;20507;-78
2024/01/28 09:28:33;;;;;;;17.75;5.95;;;;;;;0.42;84.69;100466.81;5043594;28;20448;-78
2024/01/28 09:30:58;;;;;;;12.02;5.65;;;;;;;0.36;85.07;100472.63;5046809;28;20045;-78
2024/01/28 09:33:24;;;;;;;11.68;5.75;;;;;;;0.15;87.16;100482.53;5052111;28;20063;-78
2024/01/28 09:35:52;;;;;;;18.33;6.65;;;;;;;0.35;85.96;100473.63;5045250;28;20116;-78
2024/01/28 09:38:18;;;;;;;11.15;6.25;;;;;;;0.54;84.58;100466.50;5051571;28;20021;-78
2024/01/28 09:40:43;;;;;;;15.82;5.85;;;;;;;0.49;84.33;100460.00;5033364;28;20049;-78
2024/01/28 09:43:24;;;;;;;16.38;5.72;;;;;;;0.81;83.60;100470.09;5050994;28;20408;-78
2024/01/28 09:45:50;;;;;;;16.58;6.20;;;;;;;0.69;83.51;100462.41;5049306;28;20182;-78
2024/01/28 09:48:16;;;;;;;7.95;5.15;;;;;;;0.68;83.97;100460.75;5053123;28;20485;-79
2024/01/28 09:50:41;;;;;;;12.95;6.15;;;;;;;0.43;85.88;100465.84;5049290;28;20068;-78
2024/01/28 09:53:07;;;;;;;20.13;6.20;;;;;;;0.30;86.96;100447.78;5049200;28;20029;-78
2024/01/28 09:55:33;;;;;;;18.13;7.13;;;;;;;0.50;86.24;100457.22;5051136;28;20036;-78
2024/01/28 09:57:58;;;;;;;11.27;5.78;;;;;;;0.51;86.87;100458.91;5047724;28;20029;-78
2024/01/28 10:00:25;;;;;;;13.88;5.75;;;;;;;0.51;86.24;100452.81;5049173;28;20032;-78
2024/01/28 10:02:50;;;;;;;12.80;5.63;;;;;;;0.70;85.93;100468.47;5053109;28;20515;-78
2024/01/28 10:05:16;;;;;;;15.98;5.43;;;;;;;0.89;84.50;100457.06;5050737;28;20049;-79
2024/01/28 10:07:47;;;;;;;12.65;6.28;;;;;;;0.79;84.55;100458.91;5056410;28;20037;-78
2024/01/28 10:10:13;;;;;;;17.52;5.70;;;;;;;0.96;84.91;100447.59;5048538;28;20226;-78
2024/01/28 10:12:39;;;;;;;15.32;6.28;;;;;;;1.08;84.21;100454.28;5049534;28;20032;-77
2024/01/28 10:15:16;;;;;;;12.18;6.07;;;;;;;0.97;84.74;100454.50;5045273;28;20033;-78
2024/01/28 10:17:46;;;;;;;19.17;6.32;;;;;;;1.12;85.48;100448.59;5048702;28;20024;-80
2024/01/28 10:20:13;;;;;;;16.92;6.18;;;;;;;1.37;84.76;100447.88;5046716;28;20028;-78
2024/01/28 10:22:38;;;;;;;15.07;5.63;;;;;;;1.24;85.57;100446.59;5050754;28;20082;-78
2024/01/28 10:25:04;;;;;;;11.68;5.20;;;;;;;1.18;86.07;100434.84;5048641;28;20028;-78
2024/01/28 10:27:30;;;;;;;14.65;5.68;;;;;;;1.14;86.89;100441.38;5051433;28;20068;-79
2024/01/28 10:29:55;;;;;;;16.73;6.35;;;;;;;1.12;87.68;100438.06;5055529;28;20029;-78
2024/01/28 10:32:21;;;;;;;13.05;6.03;;;;;;;1.07;87.92;100429.00;5052404;28;20036;-78
2024/01/28 10:34:46;;;;;;;15.50;6.70;;;;;;;1.24;86.70;100433.44;5054036;28;20033;-78
2024/01/28 10:37:14;;;;;;;17.95;6.63;;;;;;;1.45;85.92;100436.59;5038065;28;20029;-78
2024/01/28 10:39:44;;;;;;;11.80;7.15;;;;;;;1.50;84.71;100437.81;5030592;28;20524;-78
2024/01/28 10:42:14;;;;;;;14.10;5.63;;;;;;;1.49;85.11;100432.66;5056245;28;20121;-78
2024/01/28 10:44:47;;;;;;;14.82;5.95;;;;;;;1.75;83.61;100428.28;5048627;28;20092;-78
2024/01/28 10:47:14;;;;;;;14.20;5.63;;;;;;;1.80;82.54;100431.28;5055341;28;20021;-78
2024/01/28 10:49:42;;;;;;;18.40;5.93;;;;;;;1.96;82.33;100435.84;5054187;28;20033;-78
2024/01/28 10:52:09;;;;;;;12.57;5.75;;;;;;;1.83;82.86;100428.34;5053407;28;20116;-78
2024/01/28 10:54:39;;;;;;;10.23;5.25;;;;;;;1.86;83.08;100432.47;5054945;28;20028;-78
2024/01/28 10:57:05;;;;;;;13.18;5.45;;;;;;;2.01;82.12;100410.69;5054527;28;20123;-78
2024/01/28 10:59:33;;;;;;;11.48;4.93;;;;;;;2.22;81.40;100412.94;5039911;28;20051;-78
2024/01/28 11:01:58;;;;;;;17.75;4.88;;;;;;;2.19;80.77;100413.25;5054741;28;20087;-78
2024/01/28 11:04:24;;;;;;;19.52;6.38;;;;;;;2.17;82.00;100409.97;5048055;28;20021;-77
2024/01/28 11:06:50;;;;;;;15.38;5.68;;;;;;;2.21;82.19;100400.75;5052103;28;20059;-77
2024/01/28 11:09:16;;;;;;;18.65;6.80;;;;;;;2.41;82.24;100402.19;5050104;28;20104;-78
2024/01/28 11:11:41;;;;;;;13.48;5.40;;;;;;;2.29;83.04;100404.25;5055151;28;20060;-78
2024/01/28 11:14:07;;;;;;;24.40;8.07;;;;;;;2.60;81.59;100390.56;5036208;28;20409;-78
2024/01/28 11:16:33;;;;;;;19.17;8.68;;;;;;;2.60;81.85;100401.91;5052498;28;20021;-78
2024/01/28 11:19:05;;;;;;;31.27;8.77;;;;;;;2.72;81.55;100400.66;5054386;28;20036;-77